Bird City, KS (67731)

1:16 PM CST on December 25, 2014 (GMT -0600)
KHMYKSBI2 | Change Station
CLOSE
Current Station
Personal Weather Station
Location: Bird City, KS
Elevation: 3524 ft
Nearby Weather Stations

Elev 3524 ft 39.76 °N, 101.60 °W | Updated 26 seconds ago

Clear
Clear
40.6 °F
Feels Like 32 °F
N
17.0
Wind Variable Wind from NNW
Gusts 18.0 mph

Today
High -- | Low -- °F
--% Chance of Precip.
Yesterday
High -- | Low -- °F
Precip. -- in
8:05 AM 5:27 PM
Waxing Crescent, 18% visible
Pressure 29.43 in
Visibility 10.0 miles
Clouds Clear
Windchill 32 °F
Dew Point 26 °F
Humidity 56%
Rainfall 0.00 in
Snow Depth Not available.
UV 1.8 out of 12
Pollen .10 out of 12
Air Quality Not available.
Flu Activity Not available.
METAR KSYF 251855Z AUTO 36009KT 10SM CLR 07/M08 A2943 RMK AO2 T00651081

More Conditions Fewer Conditions

Pressure 29.43 in
Visibility 10.0 miles
Clouds Clear
Windchill 32 °F
Dew Point 26 °F
Humidity 56%
Rainfall 0.00 in
Snow Depth Not available.
UV 1.8 out of 12
Pollen .10 out of 12
Air Quality Not available.
Flu Activity Not available.
METAR KSYF 251855Z AUTO 36009KT 10SM CLR 07/M08 A2943 RMK AO2 T00651081

More Conditions Fewer Conditions

10-Day Weather Forecast

Almanac

Astronomy

Dec. 25, 2014 Rise Set
Actual Time
Civil Twilight
Nautical Twilight
Astronomical Twilight
Moon
Length of Visible Light
Length of Day
Tomorrow will be .
, % of the Moon is Illuminated

Today's Extremes

State Highs State Lows

Community

WunderPhotos

Upload Photos

1,780,366 photos uploaded!

WunderBlogs® & News

Nearby

Air Quality

  Air Quality AQ Index Pollutant
Not available.

Snow Depth

Station Depth Elevation

Earthquake Activity

City Distance Mag. Time & Date
Minimum magnitude displayed is 2.5.

Coastal Water Temperatures

Place Temperature

Nearby Weather Stations